Alma, Missouri
Current Conditions -  °F | °C
As of 10:55 AM on Friday 28 Nov 2014 (Local Time) from KMHL Reporting Station
Clear Clear  
Wind Chill: 40°   Ceiling: Unl
Heat Index: 46°   Visibility: 10mi
Dew Point: 32°   Wind: 16mph
Humidity: 57%   Direction: 200°SSW
Pressure: 30.01"   Gusts: 22mph
Location:  39.1°N, 93.55°W
Report Text: KMHL 281655Z AUTO 20014G19KT 10SM CLR 08/00 A3001 RMK AO2
Loading
Personal Weather Stations






























Interactive Weather Map New forecast layout! Learn more

10-Day Weather Forecast

Advertisements
Track Severe Weather on mobile